Time;durP1;ratioP1;P1;durP2;ratioP2;P2;SDS_P1;SDS_P2;PMS_P1;PMS_P2;Temp;Humidity;BMP_temperature;BMP_pressure;BME280_temperature;BME280_humidity;BME280_pressure;Samples;Min_cycle;Max_cycle;Signal;HPM_P1;HPM_P2
2023/07/29 00:01:18;;;;;;;3.87;2.07;;;23.30;99.90;;;;;;5067395;28;20222;-87
2023/07/29 00:03:47;;;;;;;3.33;1.77;;;23.20;99.90;;;;;;5080749;28;20299;-87
2023/07/29 00:06:13;;;;;;;3.83;1.83;;;23.20;99.90;;;;;;5066508;28;20190;-86
2023/07/29 00:08:44;;;;;;;4.23;1.80;;;23.20;99.90;;;;;;5064100;28;20180;-86
2023/07/29 00:11:10;;;;;;;2.27;1.60;;;22.80;99.90;;;;;;5063193;28;20255;-87
2023/07/29 00:13:38;;;;;;;1.90;1.40;;;22.60;99.90;;;;;;5067018;28;20238;-87
2023/07/29 00:16:06;;;;;;;2.23;1.60;;;22.50;99.90;;;;;;5064597;28;20211;-87
2023/07/29 00:18:32;;;;;;;2.07;1.60;;;22.50;99.90;;;;;;5065547;28;20182;-86
2023/07/29 00:20:57;;;;;;;2.60;1.50;;;22.50;99.90;;;;;;5065232;28;20608;-86
2023/07/29 00:23:26;;;;;;;2.03;1.50;;;22.50;99.90;;;;;;5066042;28;20211;-86
2023/07/29 00:25:59;;;;;;;2.80;1.60;;;22.30;99.90;;;;;;5066092;28;20215;-87
2023/07/29 00:28:24;;;;;;;1.60;1.50;;;22.30;99.90;;;;;;5063970;28;20219;-87
2023/07/29 00:30:52;;;;;;;1.63;1.40;;;22.40;99.90;;;;;;5068622;28;20235;-87
2023/07/29 00:33:20;;;;;;;1.60;1.40;;;22.60;99.90;;;;;;5069355;28;20548;-87
2023/07/29 00:35:50;;;;;;;1.63;1.50;;;22.70;99.90;;;;;;5065127;28;20633;-87
2023/07/29 00:38:19;;;;;;;3.43;1.50;;;22.70;99.90;;;;;;5083681;28;20183;-87
2023/07/29 00:40:47;;;;;;;1.77;1.40;;;22.80;99.90;;;;;;5065030;28;20582;-87
2023/07/29 00:43:13;;;;;;;1.40;1.30;;;22.70;99.90;;;;;;5040914;28;20606;-86
2023/07/29 00:45:39;;;;;;;1.90;1.40;;;22.80;99.90;;;;;;5064251;28;20187;-87
2023/07/29 00:48:05;;;;;;;2.03;1.47;;;22.90;99.90;;;;;;5080768;28;20518;-86
2023/07/29 00:50:32;;;;;;;2.23;1.40;;;23.00;99.90;;;;;;5063726;28;20597;-87
2023/07/29 00:52:58;;;;;;;2.20;1.40;;;23.10;99.90;;;;;;5080647;28;20226;-87
2023/07/29 00:55:28;;;;;;;3.40;1.37;;;23.10;99.90;;;;;;5061570;28;20212;-87
2023/07/29 00:57:57;;;;;;;1.47;1.37;;;23.10;99.90;;;;;;5060949;28;20176;-87
2023/07/29 01:00:29;;;;;;;2.93;1.37;;;23.20;99.90;;;;;;5060681;28;20180;-87
2023/07/29 01:02:57;;;;;;;2.60;1.40;;;23.20;99.90;;;;;;5079594;28;20188;-87
2023/07/29 01:05:32;;;;;;;2.17;1.30;;;23.20;99.90;;;;;;5061853;28;20280;-87
2023/07/29 01:08:17;;;;;;;1.93;1.30;;;23.20;99.90;;;;;;5063762;28;20218;-87
2023/07/29 01:11:01;;;;;;;1.50;1.37;;;23.20;99.90;;;;;;5063978;28;20455;-87
2023/07/29 01:13:52;;;;;;;3.10;1.23;;;23.20;99.90;;;;;;5062192;28;20243;-87
2023/07/29 01:16:25;;;;;;;1.40;1.30;;;23.20;99.90;;;;;;5063755;28;20176;-87
2023/07/29 01:18:54;;;;;;;1.40;1.30;;;23.20;99.90;;;;;;5067605;28;20181;-87
2023/07/29 01:21:23;;;;;;;1.63;1.30;;;23.20;99.90;;;;;;5063457;28;20179;-87
2023/07/29 01:23:53;;;;;;;1.53;1.40;;;23.20;99.90;;;;;;5060962;28;20176;-86
2023/07/29 01:26:18;;;;;;;1.73;1.30;;;23.20;99.90;;;;;;5068598;28;20214;-86
2023/07/29 01:28:47;;;;;;;1.40;1.30;;;23.20;99.90;;;;;;5064124;28;20195;-86
2023/07/29 01:31:21;;;;;;;2.50;1.23;;;23.20;99.90;;;;;;5064189;28;20203;-86
2023/07/29 01:33:58;;;;;;;1.60;1.30;;;23.20;99.90;;;;;;5064867;28;20175;-86
2023/07/29 01:36:27;;;;;;;1.70;1.37;;;23.20;99.90;;;;;;5063004;28;20469;-86
2023/07/29 01:38:59;;;;;;;1.43;1.33;;;23.20;99.90;;;;;;5064577;28;20177;-86
2023/07/29 01:41:26;;;;;;;2.57;1.50;;;23.20;99.90;;;;;;5060832;28;20277;-86
2023/07/29 01:43:59;;;;;;;1.80;1.43;;;23.20;99.90;;;;;;5064288;28;20262;-86
2023/07/29 01:46:25;;;;;;;2.03;1.40;;;23.20;99.90;;;;;;5064403;28;20512;-86
2023/07/29 01:48:51;;;;;;;1.30;1.20;;;23.20;99.90;;;;;;5060799;28;20393;-87
2023/07/29 01:51:17;;;;;;;3.30;1.47;;;23.20;99.90;;;;;;5063540;28;20203;-87
2023/07/29 01:53:42;;;;;;;1.77;1.30;;;23.20;99.90;;;;;;5062814;28;20176;-87
2023/07/29 01:56:11;;;;;;;1.70;1.27;;;23.20;99.90;;;;;;5063518;28;20291;-87
2023/07/29 01:58:38;;;;;;;1.43;1.23;;;23.20;99.90;;;;;;5062887;28;20222;-87
2023/07/29 02:01:03;;;;;;;1.53;1.30;;;23.20;99.90;;;;;;5063501;28;20715;-86
2023/07/29 02:03:32;;;;;;;1.47;1.13;;;23.20;99.90;;;;;;5063694;28;20338;-86
2023/07/29 02:05:57;;;;;;;1.30;1.10;;;23.20;99.90;;;;;;5078790;28;20566;-86
2023/07/29 02:08:23;;;;;;;1.30;1.20;;;23.20;99.90;;;;;;5062727;28;20659;-87
2023/07/29 02:10:50;;;;;;;1.43;1.30;;;23.20;99.90;;;;;;5064683;28;20203;-87
2023/07/29 02:13:19;;;;;;;2.40;1.47;;;23.20;99.90;;;;;;5062890;28;20187;-86
2023/07/29 02:15:47;;;;;;;1.33;1.20;;;23.20;99.90;;;;;;5062811;28;20602;-86
2023/07/29 02:18:13;;;;;;;1.50;1.20;;;23.20;99.90;;;;;;5064504;28;20250;-86
2023/07/29 02:20:48;;;;;;;1.40;1.30;;;23.20;99.90;;;;;;5060955;28;20176;-86
2023/07/29 02:23:15;;;;;;;1.77;1.33;;;23.20;99.90;;;;;;5062573;28;20179;-86
2023/07/29 02:25:47;;;;;;;1.73;1.30;;;23.20;99.90;;;;;;5061392;28;20215;-87
2023/07/29 02:28:15;;;;;;;2.23;1.20;;;23.10;99.90;;;;;;5065280;28;20261;-86
2023/07/29 02:30:44;;;;;;;1.80;1.37;;;23.10;99.90;;;;;;5063589;28;20211;-86
2023/07/29 02:33:12;;;;;;;1.40;1.30;;;23.10;99.90;;;;;;5065731;28;20176;-86
2023/07/29 02:35:41;;;;;;;2.60;1.30;;;23.10;99.90;;;;;;5066360;28;20580;-87
2023/07/29 02:38:06;;;;;;;1.53;1.10;;;23.10;99.90;;;;;;5064987;28;20179;-87
2023/07/29 02:40:32;;;;;;;1.40;1.30;;;23.00;99.90;;;;;;5065942;28;20183;-86
2023/07/29 02:42:58;;;;;;;1.63;1.30;;;22.70;99.90;;;;;;5062134;28;20215;-87
2023/07/29 02:45:27;;;;;;;2.53;1.53;;;22.40;99.90;;;;;;5063412;28;20193;-87
2023/07/29 02:47:55;;;;;;;2.03;1.33;;;22.30;99.90;;;;;;5061795;28;20184;-87
2023/07/29 02:50:23;;;;;;;1.40;1.30;;;22.20;99.90;;;;;;5062193;28;20210;-87
2023/07/29 02:52:49;;;;;;;3.03;1.40;;;22.20;99.90;;;;;;5062610;28;20180;-87
2023/07/29 02:55:15;;;;;;;4.13;1.33;;;22.10;99.90;;;;;;5062959;28;20194;-87
2023/07/29 02:57:44;;;;;;;1.30;1.20;;;22.10;99.90;;;;;;5064222;28;20188;-87
2023/07/29 03:00:13;;;;;;;1.10;1.00;;;22.40;99.90;;;;;;5062121;28;20180;-87
2023/07/29 03:02:38;;;;;;;2.53;1.27;;;22.50;99.90;;;;;;5064122;28;20253;-87
2023/07/29 03:05:05;;;;;;;1.33;1.23;;;22.70;99.90;;;;;;5056189;28;20188;-86
2023/07/29 03:07:34;;;;;;;1.57;1.20;;;22.80;99.90;;;;;;5061046;28;20180;-86
2023/07/29 03:10:00;;;;;;;0.93;0.93;;;22.80;99.90;;;;;;5064751;28;20190;-86
2023/07/29 03:12:28;;;;;;;1.40;1.30;;;22.90;99.90;;;;;;5060562;28;20202;-86
2023/07/29 03:14:56;;;;;;;1.40;1.20;;;22.90;99.90;;;;;;5062745;28;20180;-86
2023/07/29 03:17:21;;;;;;;1.33;1.00;;;22.90;99.90;;;;;;5060247;28;20510;-86
2023/07/29 03:19:53;;;;;;;1.30;1.10;;;23.00;99.90;;;;;;5064843;28;20267;-86
2023/07/29 03:22:18;;;;;;;1.30;1.20;;;23.00;99.90;;;;;;5060547;28;20182;-86
2023/07/29 03:24:47;;;;;;;2.43;1.20;;;23.10;99.90;;;;;;5061858;28;20183;-87
2023/07/29 03:27:15;;;;;;;1.30;1.20;;;23.10;99.90;;;;;;5076578;28;20294;-87
2023/07/29 03:29:44;;;;;;;1.40;1.23;;;23.00;99.90;;;;;;5059939;28;20277;-87
2023/07/29 03:32:09;;;;;;;1.23;1.10;;;23.00;99.90;;;;;;5064110;28;20671;-86
2023/07/29 03:34:35;;;;;;;1.20;1.10;;;23.00;99.90;;;;;;5061288;28;20275;-87
2023/07/29 03:37:01;;;;;;;1.20;1.10;;;23.00;99.90;;;;;;5062397;28;20176;-86
2023/07/29 03:39:34;;;;;;;1.30;1.20;;;23.00;99.90;;;;;;5077140;28;20250;-86
2023/07/29 03:41:59;;;;;;;3.33;1.10;;;23.00;99.90;;;;;;5058151;28;20215;-86
2023/07/29 03:44:35;;;;;;;2.17;1.33;;;23.00;99.90;;;;;;5060291;28;20230;-87
2023/07/29 03:47:01;;;;;;;1.30;1.10;;;23.00;99.90;;;;;;5060625;28;20179;-86
2023/07/29 03:49:26;;;;;;;1.63;1.10;;;23.00;99.90;;;;;;5060403;28;20230;-86
2023/07/29 03:51:56;;;;;;;1.20;1.10;;;23.00;99.90;;;;;;5062391;28;20277;-87
2023/07/29 03:54:21;;;;;;;1.10;1.00;;;23.00;99.90;;;;;;5060044;28;20451;-86
2023/07/29 03:56:47;;;;;;;1.30;1.20;;;23.00;99.90;;;;;;5059509;28;20671;-86
2023/07/29 03:59:12;;;;;;;1.00;0.90;;;23.00;99.90;;;;;;5063062;28;20179;-86
2023/07/29 04:02:02;;;;;;;1.90;1.10;;;23.00;99.90;;;;;;5076357;28;20199;-86
2023/07/29 04:04:27;;;;;;;1.30;1.10;;;23.00;99.90;;;;;;5065951;28;20443;-86
2023/07/29 04:06:56;;;;;;;1.20;1.10;;;23.10;99.90;;;;;;5061575;28;20589;-86
2023/07/29 04:09:25;;;;;;;2.20;1.30;;;23.10;99.90;;;;;;5063890;28;20180;-86
2023/07/29 04:11:51;;;;;;;1.63;1.00;;;23.10;99.90;;;;;;5060482;28;20212;-87
2023/07/29 04:14:17;;;;;;;1.40;1.30;;;23.10;99.90;;;;;;5063144;28;20186;-87
2023/07/29 04:16:45;;;;;;;1.40;1.13;;;23.00;99.90;;;;;;5060782;28;20279;-86
2023/07/29 04:19:14;;;;;;;2.57;1.20;;;23.00;99.90;;;;;;5062000;28;20239;-86
2023/07/29 04:21:40;;;;;;;1.87;1.20;;;23.00;99.90;;;;;;5049487;28;20322;-86
2023/07/29 04:24:05;;;;;;;1.17;1.10;;;23.00;99.90;;;;;;5060969;28;20282;-86
2023/07/29 04:26:34;;;;;;;2.67;1.43;;;23.10;99.90;;;;;;5060018;28;20216;-86
2023/07/29 04:29:03;;;;;;;1.83;1.50;;;23.10;99.90;;;;;;5060263;28;20469;-86
2023/07/29 04:31:29;;;;;;;3.17;1.50;;;23.10;99.90;;;;;;5062662;28;20220;-86
2023/07/29 04:33:57;;;;;;;1.30;1.20;;;23.00;99.90;;;;;;5060523;28;20354;-86
2023/07/29 04:36:26;;;;;;;1.33;1.23;;;23.00;99.90;;;;;;5061966;28;20460;-86
2023/07/29 04:38:58;;;;;;;2.10;1.20;;;23.00;99.90;;;;;;5058752;28;20673;-86
2023/07/29 04:41:26;;;;;;;1.10;1.00;;;23.00;99.90;;;;;;5064344;28;20214;-86
2023/07/29 04:43:55;;;;;;;1.63;1.30;;;23.00;99.90;;;;;;5065481;28;20190;-86
2023/07/29 04:46:21;;;;;;;1.40;1.20;;;23.00;99.90;;;;;;5064442;28;20199;-86
2023/07/29 04:48:49;;;;;;;1.20;1.10;;;23.00;99.90;;;;;;5063475;28;20195;-86
2023/07/29 04:51:18;;;;;;;2.33;1.23;;;23.00;99.90;;;;;;5063040;28;20215;-86
2023/07/29 04:53:46;;;;;;;1.63;1.53;;;23.00;99.90;;;;;;5062925;28;20207;-86
2023/07/29 04:56:13;;;;;;;1.43;1.33;;;23.10;99.90;;;;;;5060560;28;20190;-86
2023/07/29 04:58:41;;;;;;;1.50;1.20;;;23.10;99.90;;;;;;5061257;28;20180;-86
2023/07/29 05:01:07;;;;;;;1.60;1.50;;;23.10;99.90;;;;;;5064937;28;20642;-86
2023/07/29 05:03:36;;;;;;;2.20;1.40;;;23.10;99.90;;;;;;5065178;28;20183;-86
2023/07/29 05:06:03;;;;;;;1.30;1.20;;;23.10;99.90;;;;;;5063446;28;20224;-86
2023/07/29 05:08:29;;;;;;;1.60;1.43;;;23.10;99.90;;;;;;5064294;28;20183;-86
2023/07/29 05:10:58;;;;;;;1.97;1.30;;;23.10;99.90;;;;;;5063289;28;20647;-87
2023/07/29 05:13:23;;;;;;;1.27;1.17;;;23.10;99.90;;;;;;5064964;28;20279;-87
2023/07/29 05:15:51;;;;;;;2.23;1.37;;;23.10;99.90;;;;;;5064950;28;20267;-87
2023/07/29 05:18:17;;;;;;;1.70;1.20;;;23.10;99.90;;;;;;5063812;28;20190;-86
2023/07/29 05:20:42;;;;;;;1.50;1.37;;;23.10;99.90;;;;;;5064237;28;20505;-86
2023/07/29 05:23:08;;;;;;;1.90;1.60;;;23.10;99.90;;;;;;5063224;28;20253;-87
2023/07/29 05:25:40;;;;;;;1.47;1.37;;;23.10;99.90;;;;;;5064785;28;20180;-86
2023/07/29 05:28:09;;;;;;;1.37;1.20;;;23.10;99.90;;;;;;5065245;28;20442;-86
2023/07/29 05:30:40;;;;;;;1.60;1.50;;;23.10;99.90;;;;;;5061840;28;20402;-86
2023/07/29 05:33:08;;;;;;;1.70;1.60;;;23.10;99.90;;;;;;5062200;28;20184;-86
2023/07/29 05:35:37;;;;;;;1.43;1.33;;;23.20;99.90;;;;;;5063780;28;20171;-86
2023/07/29 05:38:06;;;;;;;2.17;1.97;;;23.20;99.90;;;;;;5064142;28;20180;-86
2023/07/29 05:40:31;;;;;;;3.47;2.30;;;23.20;99.90;;;;;;5060069;28;20199;-87
2023/07/29 05:43:06;;;;;;;2.37;2.00;;;23.20;99.90;;;;;;5062930;28;20180;-87
2023/07/29 05:45:31;;;;;;;2.17;1.90;;;23.20;99.90;;;;;;5065722;28;20549;-86
2023/07/29 05:47:57;;;;;;;2.43;2.23;;;23.20;99.90;;;;;;5063142;28;20187;-86
2023/07/29 05:50:23;;;;;;;1.83;1.73;;;23.20;99.90;;;;;;5065817;28;20204;-86
2023/07/29 05:52:51;;;;;;;2.27;2.07;;;23.20;99.90;;;;;;5064482;28;20210;-87
2023/07/29 05:55:17;;;;;;;2.23;1.90;;;23.20;99.90;;;;;;5059555;28;20255;-87
2023/07/29 05:57:45;;;;;;;2.00;1.80;;;23.20;99.90;;;;;;5059724;28;20543;-86
2023/07/29 06:00:15;;;;;;;2.30;2.03;;;23.30;99.90;;;;;;5061148;28;20183;-86
2023/07/29 06:02:41;;;;;;;2.30;2.10;;;23.20;99.90;;;;;;5057079;28;20184;-86
2023/07/29 06:05:10;;;;;;;2.50;1.90;;;23.20;99.90;;;;;;5060717;28;20175;-86
2023/07/29 06:07:35;;;;;;;2.23;2.03;;;23.30;99.90;;;;;;5059955;28;20195;-86
2023/07/29 06:10:01;;;;;;;4.10;2.10;;;23.20;99.90;;;;;;5059771;28;20184;-86
2023/07/29 06:12:28;;;;;;;3.83;2.13;;;23.20;99.90;;;;;;5062106;28;20339;-86
2023/07/29 06:14:56;;;;;;;2.23;2.03;;;23.20;99.90;;;;;;5059510;28;20215;-86
2023/07/29 06:17:25;;;;;;;2.27;2.03;;;23.20;99.90;;;;;;5063220;28;20485;-87
2023/07/29 06:19:51;;;;;;;2.27;2.07;;;23.20;99.90;;;;;;5059120;28;20191;-86
2023/07/29 06:22:17;;;;;;;2.07;1.90;;;23.20;99.90;;;;;;5062128;28;20171;-86
2023/07/29 06:24:46;;;;;;;2.27;2.00;;;23.20;99.90;;;;;;5059565;28;20183;-86
2023/07/29 06:27:14;;;;;;;3.30;2.67;;;23.20;99.90;;;;;;5059028;28;20574;-86
2023/07/29 06:29:46;;;;;;;4.20;3.07;;;23.20;99.90;;;;;;5077786;28;20211;-86
2023/07/29 06:32:12;;;;;;;2.30;2.10;;;23.30;99.90;;;;;;5058464;28;20269;-86
2023/07/29 06:35:01;;;;;;;2.60;2.10;;;23.30;99.90;;;;;;5057578;28;20188;-86
2023/07/29 06:37:29;;;;;;;2.23;1.83;;;23.30;99.90;;;;;;5058540;28;20254;-87
2023/07/29 06:39:58;;;;;;;2.30;2.00;;;23.30;99.90;;;;;;5061326;28;20184;-87
2023/07/29 06:42:24;;;;;;;2.40;2.00;;;23.30;99.90;;;;;;5058932;28;20590;-86
2023/07/29 06:44:49;;;;;;;3.07;2.60;;;23.30;99.90;;;;;;5063954;28;20581;-86
2023/07/29 06:47:16;;;;;;;2.10;1.90;;;23.30;99.90;;;;;;5060441;28;20414;-86
2023/07/29 06:49:42;;;;;;;2.20;2.00;;;23.30;99.90;;;;;;5059726;28;20333;-86
2023/07/29 06:52:08;;;;;;;2.40;2.20;;;23.30;99.90;;;;;;5057877;28;20207;-86
2023/07/29 06:54:37;;;;;;;2.53;2.33;;;23.30;99.90;;;;;;5059381;28;20696;-86
2023/07/29 06:57:08;;;;;;;2.30;2.10;;;23.30;99.90;;;;;;5058543;28;20179;-86
2023/07/29 06:59:37;;;;;;;2.47;1.93;;;23.40;99.90;;;;;;5059186;28;20290;-86
2023/07/29 07:02:06;;;;;;;2.87;2.10;;;23.40;99.90;;;;;;5057764;28;20470;-86
2023/07/29 07:04:35;;;;;;;2.30;2.10;;;23.40;99.90;;;;;;5055969;28;20217;-86
2023/07/29 07:07:06;;;;;;;2.23;1.83;;;23.40;99.90;;;;;;5056152;28;20188;-86
2023/07/29 07:09:32;;;;;;;2.30;2.10;;;23.40;99.90;;;;;;5058034;28;20253;-86
2023/07/29 07:11:58;;;;;;;2.10;1.90;;;23.40;99.90;;;;;;5058871;28;20306;-86
2023/07/29 07:14:23;;;;;;;2.77;2.10;;;23.50;99.90;;;;;;5058217;28;20457;-86
2023/07/29 07:16:49;;;;;;;2.13;1.70;;;23.40;99.90;;;;;;5060971;28;20190;-86
2023/07/29 07:19:15;;;;;;;2.30;1.80;;;23.50;99.90;;;;;;5058091;28;20180;-86
2023/07/29 07:21:44;;;;;;;2.00;1.80;;;23.50;99.90;;;;;;5059778;28;20179;-86
2023/07/29 07:24:12;;;;;;;2.00;1.80;;;23.50;99.90;;;;;;5055340;28;20179;-86
2023/07/29 07:26:38;;;;;;;1.87;1.77;;;23.50;99.90;;;;;;5064735;28;20189;-86
2023/07/29 07:29:05;;;;;;;2.20;2.00;;;23.50;99.90;;;;;;5056253;28;20461;-86
2023/07/29 07:31:33;;;;;;;2.20;2.00;;;23.50;99.90;;;;;;5065407;28;20221;-86
2023/07/29 07:33:59;;;;;;;2.33;1.70;;;23.50;99.90;;;;;;5061293;28;20367;-86
2023/07/29 07:36:25;;;;;;;2.07;1.73;;;23.50;99.90;;;;;;5060451;28;20253;-86
2023/07/29 07:38:54;;;;;;;1.80;1.70;;;23.60;99.90;;;;;;5062000;28;20180;-86
2023/07/29 07:41:24;;;;;;;2.30;1.70;;;23.70;99.90;;;;;;5061287;28;20182;-85
2023/07/29 07:43:52;;;;;;;1.67;1.57;;;23.80;99.90;;;;;;5061016;28;20180;-85
2023/07/29 07:46:21;;;;;;;4.17;1.73;;;23.80;99.90;;;;;;5058686;28;20581;-86
2023/07/29 07:48:46;;;;;;;2.67;1.87;;;24.00;99.90;;;;;;5057777;28;20566;-86
2023/07/29 07:51:13;;;;;;;3.00;1.80;;;24.00;99.90;;;;;;5059439;28;20252;-86
2023/07/29 07:53:43;;;;;;;2.30;1.70;;;24.10;99.90;;;;;;5055724;28;20333;-86
2023/07/29 07:56:08;;;;;;;1.70;1.60;;;24.20;99.90;;;;;;5056217;28;20447;-86
2023/07/29 07:58:34;;;;;;;3.03;1.80;;;24.20;99.90;;;;;;5073868;28;20215;-86
2023/07/29 08:01:07;;;;;;;1.63;1.53;;;24.30;99.90;;;;;;5053988;28;20214;-86
2023/07/29 08:03:33;;;;;;;1.83;1.63;;;24.40;99.90;;;;;;5054528;28;20338;-86
2023/07/29 08:05:59;;;;;;;4.60;1.50;;;24.50;99.90;;;;;;5057316;28;20191;-86
2023/07/29 08:08:26;;;;;;;2.63;1.63;;;24.50;99.90;;;;;;5058732;28;20246;-86
2023/07/29 08:10:56;;;;;;;2.37;1.53;;;24.50;99.90;;;;;;5058542;28;20211;-86
2023/07/29 08:13:42;;;;;;;1.67;1.57;;;24.60;99.90;;;;;;5059504;28;20241;-86
2023/07/29 08:16:08;;;;;;;2.90;1.70;;;24.60;99.90;;;;;;5061635;28;20188;-86
2023/07/29 08:18:34;;;;;;;2.70;1.60;;;24.70;99.90;;;;;;5057576;28;20190;-86
2023/07/29 08:21:03;;;;;;;2.13;1.70;;;24.60;99.90;;;;;;5051226;28;20206;-86
2023/07/29 08:23:32;;;;;;;2.63;1.60;;;24.70;99.90;;;;;;5057247;28;20393;-86
2023/07/29 08:26:03;;;;;;;3.27;1.77;;;25.00;99.60;;;;;;5074718;28;20183;-86
2023/07/29 08:28:37;;;;;;;4.20;1.63;;;25.00;99.40;;;;;;5063835;28;20184;-87
2023/07/29 08:31:06;;;;;;;2.67;1.80;;;25.00;99.10;;;;;;5059561;28;20216;-86
2023/07/29 08:33:36;;;;;;;2.17;1.50;;;25.00;99.10;;;;;;5058858;28;20191;-87
2023/07/29 08:36:08;;;;;;;3.97;1.83;;;25.10;98.90;;;;;;5058260;28;20555;-86
2023/07/29 08:38:39;;;;;;;2.90;1.80;;;25.30;98.60;;;;;;5056140;28;20183;-87
2023/07/29 08:41:19;;;;;;;2.75;1.60;;;25.40;98.30;;;;;;5061912;28;20196;-87
2023/07/29 08:44:04;;;;;;;2.42;1.65;;;25.40;97.90;;;;;;5057832;28;20176;-87
2023/07/29 08:46:30;;;;;;;3.88;1.48;;;25.60;97.50;;;;;;5054903;28;20218;-87
2023/07/29 08:48:57;;;;;;;1.45;1.33;;;25.60;97.40;;;;;;5058573;28;20212;-87
2023/07/29 08:51:26;;;;;;;2.33;1.65;;;25.50;97.30;;;;;;5058015;28;20305;-87
2023/07/29 08:53:53;;;;;;;2.47;1.60;;;25.50;97.40;;;;;;5055688;28;20269;-87
2023/07/29 08:56:18;;;;;;;2.10;1.30;;;25.50;97.50;;;;;;5057622;28;20243;-87
2023/07/29 08:58:50;;;;;;;3.10;1.55;;;25.40;97.50;;;;;;5058000;28;20295;-86
2023/07/29 09:01:20;;;;;;;6.18;2.08;;;25.40;97.60;;;;;;5054666;28;20233;-87
2023/07/29 09:03:46;;;;;;;1.65;1.55;;;25.30;97.70;;;;;;5058187;28;20183;-87
2023/07/29 09:06:13;;;;;;;3.40;1.60;;;25.40;97.80;;;;;;5058928;28;20227;-87
2023/07/29 09:08:45;;;;;;;2.33;1.50;;;25.40;97.70;;;;;;5058208;28;20179;-87
2023/07/29 09:11:17;;;;;;;1.95;1.65;;;25.40;97.50;;;;;;5057728;28;20403;-87
2023/07/29 09:13:46;;;;;;;2.08;1.30;;;25.50;97.30;;;;;;5057322;28;20167;-87
2023/07/29 09:16:15;;;;;;;2.67;1.60;;;25.60;97.10;;;;;;5058228;28;20198;-87
2023/07/29 09:18:51;;;;;;;2.08;1.30;;;25.60;97.20;;;;;;5056369;28;20180;-87
2023/07/29 09:21:28;;;;;;;2.03;1.50;;;25.70;96.80;;;;;;5060199;28;20230;-86
2023/07/29 09:23:55;;;;;;;1.85;1.38;;;25.70;96.70;;;;;;5053705;28;20252;-86
2023/07/29 09:26:26;;;;;;;1.90;1.42;;;25.80;96.70;;;;;;5056269;28;20596;-87
2023/07/29 09:29:02;;;;;;;2.83;1.40;;;25.80;96.40;;;;;;5052922;28;20238;-87
2023/07/29 09:31:29;;;;;;;3.88;1.40;;;25.90;96.10;;;;;;5055788;28;20207;-87
2023/07/29 09:34:03;;;;;;;2.10;1.40;;;26.00;95.90;;;;;;5057102;28;20723;-87
2023/07/29 09:36:31;;;;;;;2.30;1.20;;;26.00;95.90;;;;;;5056402;28;20177;-87
2023/07/29 09:39:00;;;;;;;1.73;1.33;;;26.00;95.80;;;;;;5059448;28;20183;-87
2023/07/29 09:41:33;;;;;;;3.28;1.50;;;26.10;95.50;;;;;;5055283;28;20195;-87
2023/07/29 09:44:02;;;;;;;1.50;1.40;;;26.10;95.50;;;;;;5061681;28;20229;-86
2023/07/29 09:46:38;;;;;;;1.55;1.30;;;26.10;95.40;;;;;;5058217;28;20367;-87
2023/07/29 09:49:08;;;;;;;2.38;1.38;;;26.10;95.50;;;;;;5059156;28;20340;-87
2023/07/29 09:51:44;;;;;;;1.50;1.30;;;26.10;95.40;;;;;;5056590;28;20608;-88
2023/07/29 09:54:13;;;;;;;1.40;1.30;;;26.20;95.20;;;;;;5060342;28;20191;-87
2023/07/29 09:56:48;;;;;;;1.55;1.05;;;26.20;95.10;;;;;;5058512;28;20407;-87
2023/07/29 09:59:19;;;;;;;1.38;1.13;;;26.20;95.30;;;;;;5060291;28;20181;-87
2023/07/29 10:01:45;;;;;;;5.38;1.40;;;26.00;95.30;;;;;;5055893;28;20294;-87
2023/07/29 10:04:12;;;;;;;2.42;1.42;;;26.00;95.50;;;;;;5054449;28;20279;-87
2023/07/29 10:06:38;;;;;;;1.42;1.27;;;25.80;95.70;;;;;;5064493;28;20223;-87
2023/07/29 10:09:10;;;;;;;2.08;1.33;;;25.80;95.90;;;;;;5055878;28;20184;-87
2023/07/29 10:11:43;;;;;;;2.03;1.30;;;25.80;95.90;;;;;;5055882;28;20196;-88
2023/07/29 10:14:12;;;;;;;2.80;1.20;;;25.80;95.90;;;;;;5058462;28;20173;-87
2023/07/29 10:16:40;;;;;;;2.77;1.50;;;25.80;96.00;;;;;;5054659;28;20183;-87
2023/07/29 10:19:10;;;;;;;1.40;1.30;;;25.80;95.90;;;;;;5056467;28;20179;-87
2023/07/29 10:21:44;;;;;;;1.50;1.13;;;25.80;95.90;;;;;;5053076;28;20391;-87
2023/07/29 10:24:18;;;;;;;1.90;1.40;;;25.90;95.80;;;;;;5051660;28;20272;-87
2023/07/29 10:26:51;;;;;;;3.38;1.38;;;25.90;95.70;;;;;;5056502;28;20557;-87
2023/07/29 10:29:22;;;;;;;1.20;1.07;;;25.90;95.70;;;;;;5053688;28;20192;-87
2023/07/29 10:31:52;;;;;;;1.90;1.20;;;25.80;95.60;;;;;;5054048;28;20450;-88
2023/07/29 10:34:18;;;;;;;1.50;1.13;;;25.80;95.70;;;;;;5065263;28;20179;-87
2023/07/29 10:36:46;;;;;;;1.37;1.27;;;25.80;95.60;;;;;;5058395;28;20180;-87
2023/07/29 10:39:15;;;;;;;2.30;1.10;;;25.90;95.60;;;;;;5060016;28;20180;-87
2023/07/29 10:42:10;;;;;;;3.40;1.30;;;25.80;95.80;;;;;;5057164;28;20176;-87
2023/07/29 10:44:55;;;;;;;1.50;1.40;;;25.80;95.60;;;;;;5053081;28;20195;-87
2023/07/29 10:47:25;;;;;;;1.53;1.20;;;25.70;95.70;;;;;;5055566;28;20335;-87
2023/07/29 10:49:55;;;;;;;1.20;1.10;;;25.70;95.60;;;;;;5055360;28;20223;-87
2023/07/29 10:52:44;;;;;;;2.10;1.20;;;25.70;95.70;;;;;;5052695;28;20695;-89
2023/07/29 10:55:41;;;;;;;1.30;1.20;;;25.80;95.60;;;;;;5058759;28;20707;-87
2023/07/29 10:58:17;;;;;;;2.10;1.27;;;25.70;95.70;;;;;;5057138;28;20180;-87
2023/07/29 11:00:52;;;;;;;1.30;1.20;;;25.70;95.80;;;;;;5055969;28;20554;-87
2023/07/29 11:03:17;;;;;;;1.43;1.10;;;25.80;95.70;;;;;;5060114;28;20180;-87
2023/07/29 11:05:53;;;;;;;3.60;1.20;;;25.80;95.70;;;;;;5054420;28;20206;-87
2023/07/29 11:08:27;;;;;;;1.63;1.20;;;25.90;95.50;;;;;;5069846;22;20314;-3
2023/07/29 11:11:08;;;;;;;1.93;1.20;;;25.90;95.60;;;;;;5074020;28;20211;-4
2023/07/29 11:13:36;;;;;;;1.50;1.40;;;26.00;95.60;;;;;;5075165;28;20167;-4
2023/07/29 11:16:04;;;;;;;2.20;1.30;;;26.00;95.60;;;;;;5075466;28;20662;-4
2023/07/29 11:18:34;;;;;;;1.10;1.00;;;26.00;95.40;;;;;;5075214;28;20181;-5
2023/07/29 11:21:01;;;;;;;2.27;1.33;;;26.10;95.50;;;;;;5075336;28;20175;-5
2023/07/29 11:23:30;;;;;;;2.20;1.10;;;26.10;95.50;;;;;;5075767;28;20762;-4
2023/07/29 11:25:56;;;;;;;2.05;1.30;;;26.10;95.40;;;;;;5074008;28;20175;-4
2023/07/29 11:28:22;;;;;;;2.80;1.20;;;26.20;95.30;;;;;;5074942;28;20233;-4
2023/07/29 11:30:49;;;;;;;1.47;1.20;;;26.10;95.30;;;;;;5075517;28;20188;-4
2023/07/29 11:33:18;;;;;;;1.67;1.25;;;26.10;95.40;;;;;;5075442;28;20152;-4
2023/07/29 11:35:44;;;;;;;1.30;1.20;;;26.10;95.40;;;;;;5074055;28;20179;-4
2023/07/29 11:38:15;;;;;;;3.28;1.30;;;26.00;95.50;;;;;;5072956;28;20537;-5
2023/07/29 11:40:40;;;;;;;1.58;1.20;;;26.00;95.70;;;;;;5074148;28;20176;-5
2023/07/29 11:43:06;;;;;;;1.50;1.20;;;26.10;95.60;;;;;;5074945;28;20581;-5
2023/07/29 11:45:33;;;;;;;1.63;1.15;;;26.10;95.50;;;;;;5074981;28;20179;-6
2023/07/29 11:48:00;;;;;;;2.50;1.20;;;26.10;95.60;;;;;;5074345;28;20731;-5
2023/07/29 11:50:26;;;;;;;1.63;1.20;;;26.10;95.60;;;;;;5078671;28;20179;-5
2023/07/29 11:52:52;;;;;;;2.00;1.47;;;26.20;95.60;;;;;;5079844;28;20168;-5
2023/07/29 11:55:19;;;;;;;1.58;1.20;;;26.10;95.60;;;;;;5077944;28;20579;-5
2023/07/29 11:57:51;;;;;;;1.73;1.27;;;26.00;95.70;;;;;;5078458;28;20172;-5
2023/07/29 12:00:18;;;;;;;2.35;1.17;;;26.10;95.80;;;;;;5079313;28;20175;-5
2023/07/29 12:02:45;;;;;;;1.33;1.10;;;26.00;95.70;;;;;;5078851;28;20523;-5
2023/07/29 12:05:12;;;;;;;1.40;1.27;;;26.00;95.70;;;;;;5079699;28;20151;-5
2023/07/29 12:07:43;;;;;;;2.00;1.10;;;26.00;95.60;;;;;;5078022;28;20182;-5
2023/07/29 12:10:10;;;;;;;2.60;1.30;;;26.00;95.80;;;;;;5078437;28;20289;-6
2023/07/29 12:12:54;;;;;;;1.43;1.20;;;26.10;95.70;;;;;;5078627;28;20309;-5
2023/07/29 12:15:28;;;;;;;1.25;1.15;;;26.10;95.70;;;;;;5077611;28;20179;-5
2023/07/29 12:17:58;;;;;;;2.10;1.30;;;26.20;95.70;;;;;;5077380;28;20248;-5
2023/07/29 12:20:25;;;;;;;1.27;1.17;;;26.10;95.60;;;;;;5079022;28;20255;-6
2023/07/29 12:23:01;;;;;;;2.10;1.17;;;26.10;95.90;;;;;;5078422;28;20209;-5
2023/07/29 12:25:27;;;;;;;1.57;1.30;;;26.10;95.40;;;;;;5078767;28;20164;-5
2023/07/29 12:27:55;;;;;;;1.60;1.50;;;26.10;95.50;;;;;;5077720;28;20218;-5
2023/07/29 12:30:22;;;;;;;3.80;1.25;;;26.10;95.50;;;;;;5077741;28;20777;-5
2023/07/29 12:32:48;;;;;;;1.30;1.20;;;26.10;95.80;;;;;;5077688;28;20263;-5
2023/07/29 12:35:14;;;;;;;1.30;1.20;;;26.10;95.90;;;;;;5077333;28;20172;-5
2023/07/29 12:37:42;;;;;;;1.33;1.23;;;26.10;95.60;;;;;;5078362;28;20159;-6
2023/07/29 12:40:29;;;;;;;1.80;1.30;;;26.10;96.10;;;;;;5077214;28;20195;-5
2023/07/29 12:42:55;;;;;;;1.73;1.40;;;26.10;94.90;;;;;;5076566;28;20183;-5
2023/07/29 12:45:28;;;;;;;1.43;1.17;;;26.10;95.50;;;;;;5078097;28;20200;-6
2023/07/29 12:47:54;;;;;;;1.77;1.30;;;26.00;95.50;;;;;;5078755;28;20250;-5
2023/07/29 12:50:19;;;;;;;2.53;1.40;;;26.00;95.80;;;;;;5077284;28;20299;-5
2023/07/29 12:52:45;;;;;;;3.73;1.60;;;26.00;94.30;;;;;;5076382;28;20176;-5
2023/07/29 12:55:13;;;;;;;1.30;1.20;;;25.80;95.90;;;;;;5076940;28;20531;-5
2023/07/29 12:57:41;;;;;;;1.50;1.20;;;25.90;96.00;;;;;;5077472;28;20181;-5